Time;durP1;ratioP1;P1;durP2;ratioP2;P2;SDS_P1;SDS_P2;PMS_P1;PMS_P2;Temp;Humidity;BMP_temperature;BMP_pressure;BME280_temperature;BME280_humidity;BME280_pressure;Samples;Min_cycle;Max_cycle;Signal;HPM_P1;HPM_P2
2023/08/28 00:01:15;;;;;;;1999.90;999.90;;;14.40;99.90;;;;;;5113356;27;20428;-69
2023/08/28 00:03:43;;;;;;;1999.90;999.90;;;14.50;99.90;;;;;;5109982;27;20432;-69
2023/08/28 00:06:11;;;;;;;1999.90;999.90;;;14.40;99.90;;;;;;5123720;27;20454;-70
2023/08/28 00:08:37;;;;;;;1999.90;999.90;;;14.30;99.90;;;;;;5122058;27;20432;-70
2023/08/28 00:11:04;;;;;;;1999.90;999.90;;;14.50;99.90;;;;;;5114175;27;20422;-68
2023/08/28 00:13:31;;;;;;;1999.90;999.90;;;14.40;99.90;;;;;;5112548;28;20901;-68
2023/08/28 00:15:57;;;;;;;1999.90;999.90;;;14.80;99.90;;;;;;5114148;27;20930;-67
2023/08/28 00:18:24;;;;;;;1999.90;999.90;;;14.50;99.90;;;;;;5109593;28;20424;-67
2023/08/28 00:20:51;;;;;;;1999.90;999.90;;;14.50;99.90;;;;;;5120773;28;20919;-68
2023/08/28 00:23:19;;;;;;;1999.90;999.90;;;14.40;99.90;;;;;;5113780;28;21106;-68
2023/08/28 00:25:46;;;;;;;1999.90;999.90;;;14.40;99.90;;;;;;5111234;28;20436;-68
2023/08/28 00:28:12;;;;;;;1999.90;999.90;;;14.50;99.90;;;;;;5119249;28;20430;-69
2023/08/28 00:30:39;;;;;;;1999.90;999.90;;;14.50;99.90;;;;;;5137092;28;20452;-68
2023/08/28 00:33:06;;;;;;;1999.90;999.90;;;14.40;99.90;;;;;;5134288;28;20430;-68
2023/08/28 00:35:32;;;;;;;1999.90;999.90;;;14.50;99.90;;;;;;5123961;28;21130;-69
2023/08/28 00:37:59;;;;;;;1999.90;999.90;;;14.40;99.90;;;;;;5109362;28;20428;-68
2023/08/28 00:40:28;;;;;;;1999.90;999.90;;;14.40;99.90;;;;;;5109794;28;20439;-68
2023/08/28 00:42:54;;;;;;;1999.90;999.90;;;14.40;99.90;;;;;;5121589;28;20873;-68
2023/08/28 00:45:21;;;;;;;1999.90;999.90;;;14.50;99.90;;;;;;5111193;28;20797;-68
2023/08/28 00:47:48;;;;;;;1999.90;999.90;;;14.50;99.90;;;;;;5110055;28;20436;-67
2023/08/28 00:50:15;;;;;;;1999.90;999.90;;;14.50;99.90;;;;;;5110357;28;20905;-68
2023/08/28 00:52:42;;;;;;;1999.90;999.90;;;14.40;99.90;;;;;;5124412;28;20437;-68
2023/08/28 00:55:09;;;;;;;1999.90;999.90;;;14.40;99.90;;;;;;5114129;28;20426;-67
2023/08/28 00:57:37;;;;;;;1999.90;999.90;;;14.30;99.90;;;;;;5111002;28;20941;-69
2023/08/28 01:00:06;;;;;;;1999.90;999.90;;;14.30;99.90;;;;;;5109039;28;20424;-67
2023/08/28 01:02:33;;;;;;;1999.90;999.90;;;14.10;99.90;;;;;;5119100;28;20427;-68
2023/08/28 01:05:00;;;;;;;1999.90;999.90;;;14.10;99.90;;;;;;5123548;28;20422;-69
2023/08/28 01:07:31;;;;;;;1999.90;999.90;;;14.10;99.90;;;;;;5118903;27;20458;-68
2023/08/28 01:10:05;;;;;;;1999.90;999.90;;;14.10;99.90;;;;;;5117564;27;20424;-69
2023/08/28 01:12:43;;;;;;;1999.90;999.90;;;14.00;99.90;;;;;;5105816;27;20422;-68
2023/08/28 01:15:15;;;;;;;1999.90;999.90;;;13.90;99.90;;;;;;5117360;27;20952;-69
2023/08/28 01:17:43;;;;;;;1999.90;999.90;;;14.00;99.90;;;;;;5123265;27;20416;-68
2023/08/28 01:20:12;;;;;;;1999.90;999.90;;;13.90;99.90;;;;;;5119457;27;20431;-69
2023/08/28 01:22:46;;;;;;;1999.90;999.90;;;13.90;99.90;;;;;;5113098;27;20424;-68
2023/08/28 01:25:16;;;;;;;1999.90;999.90;;;13.70;99.90;;;;;;5119227;27;20433;-68
2023/08/28 01:27:43;;;;;;;1999.90;999.90;;;13.70;99.90;;;;;;5127581;27;20448;-66
2023/08/28 01:30:11;;;;;;;1999.90;999.90;;;13.80;99.90;;;;;;5114855;27;20458;-68
2023/08/28 01:32:38;;;;;;;1999.90;999.90;;;13.90;99.90;;;;;;5112457;27;20515;-69
2023/08/28 01:35:08;;;;;;;1999.90;999.90;;;13.80;99.90;;;;;;5115055;27;20435;-68
2023/08/28 01:37:44;;;;;;;1999.90;999.90;;;13.80;99.90;;;;;;5120729;27;20422;-67
2023/08/28 01:40:15;;;;;;;1999.90;999.90;;;13.90;99.90;;;;;;5125816;27;20422;-69
2023/08/28 01:42:45;;;;;;;1999.90;999.90;;;14.20;99.90;;;;;;5124011;27;21578;-68
2023/08/28 01:45:13;;;;;;;1999.90;999.90;;;14.00;99.90;;;;;;5117232;27;20428;-68
2023/08/28 01:47:40;;;;;;;1999.90;999.90;;;13.90;99.90;;;;;;5116049;27;20428;-68
2023/08/28 01:50:08;;;;;;;1999.90;999.90;;;13.90;99.90;;;;;;5111969;27;20424;-68
2023/08/28 01:52:35;;;;;;;1999.90;999.90;;;13.90;99.90;;;;;;5129095;27;20502;-68
2023/08/28 01:55:02;;;;;;;1999.90;999.90;;;14.00;99.90;;;;;;5126563;27;20812;-68
2023/08/28 01:57:30;;;;;;;1999.90;999.90;;;14.00;99.90;;;;;;5116146;27;20802;-69
2023/08/28 01:59:56;;;;;;;1999.90;999.90;;;13.90;99.90;;;;;;5114664;27;20455;-68
2023/08/28 02:02:23;;;;;;;1999.90;999.90;;;13.90;99.90;;;;;;5111341;27;20796;-67
2023/08/28 02:04:50;;;;;;;1999.90;999.90;;;14.00;99.90;;;;;;5116993;27;20433;-67
2023/08/28 02:07:16;;;;;;;1999.90;999.90;;;13.90;99.90;;;;;;5126348;27;20430;-67
2023/08/28 02:09:43;;;;;;;1999.90;999.90;;;13.80;99.90;;;;;;5121977;27;20424;-67
2023/08/28 02:12:10;;;;;;;1999.90;999.90;;;13.80;99.90;;;;;;5119932;27;20430;-66
2023/08/28 02:14:38;;;;;;;1999.90;999.90;;;13.80;99.90;;;;;;5112777;27;20428;-69
2023/08/28 02:17:05;;;;;;;1999.90;999.90;;;13.90;99.90;;;;;;5111366;27;20423;-67
2023/08/28 02:19:31;;;;;;;1999.90;999.90;;;13.70;99.90;;;;;;5126593;27;20762;-68
2023/08/28 02:21:58;;;;;;;1999.90;999.90;;;13.70;99.90;;;;;;5125075;27;20445;-68
2023/08/28 02:24:26;;;;;;;1999.90;999.90;;;13.80;99.90;;;;;;5115055;27;20448;-68
2023/08/28 02:26:52;;;;;;;1999.90;999.90;;;13.80;99.90;;;;;;5115349;27;20428;-67
2023/08/28 02:29:19;;;;;;;1999.90;999.90;;;13.60;99.90;;;;;;5113780;27;20437;-68
2023/08/28 02:31:47;;;;;;;1999.90;999.90;;;13.70;99.90;;;;;;5126558;27;20434;-68
2023/08/28 02:34:14;;;;;;;1999.90;999.90;;;13.70;99.90;;;;;;5125729;27;20431;-69
2023/08/28 02:36:40;;;;;;;1999.90;999.90;;;13.70;99.90;;;;;;5119595;27;20424;-67
2023/08/28 02:39:07;;;;;;;1999.90;999.90;;;13.70;99.90;;;;;;5120035;27;20447;-67
2023/08/28 02:41:34;;;;;;;1999.90;999.90;;;13.70;99.90;;;;;;5107395;27;20909;-68
2023/08/28 02:44:00;;;;;;;1999.90;999.90;;;13.70;99.90;;;;;;5116833;27;20804;-68
2023/08/28 02:46:27;;;;;;;1999.90;999.90;;;13.70;99.90;;;;;;5124662;27;20430;-68
2023/08/28 02:48:55;;;;;;;1999.90;999.90;;;13.70;99.90;;;;;;5119144;27;20433;-67
2023/08/28 02:51:22;;;;;;;1999.90;999.90;;;13.70;99.90;;;;;;5114526;27;20426;-67
2023/08/28 02:53:48;;;;;;;1999.90;999.90;;;13.40;99.90;;;;;;5111812;27;20435;-68
2023/08/28 02:56:27;;;;;;;1999.90;999.90;;;13.40;99.90;;;;;;5117344;27;20915;-67
2023/08/28 02:58:54;;;;;;;1999.90;999.90;;;13.40;99.90;;;;;;5115391;27;20501;-68
2023/08/28 03:01:21;;;;;;;1999.90;999.90;;;13.50;99.90;;;;;;5115899;27;20455;-68
2023/08/28 03:03:48;;;;;;;1999.90;999.90;;;13.70;99.90;;;;;;5116043;27;20431;-67
2023/08/28 03:06:16;;;;;;;1999.90;999.90;;;13.70;99.90;;;;;;5115661;27;20428;-68
2023/08/28 03:08:42;;;;;;;1999.90;999.90;;;13.70;99.90;;;;;;5114971;27;20414;-66
2023/08/28 03:11:09;;;;;;;1999.90;999.90;;;13.60;99.90;;;;;;5121204;27;20424;-68
2023/08/28 03:13:36;;;;;;;1999.90;999.90;;;13.60;99.90;;;;;;5113057;27;20456;-67
2023/08/28 03:16:03;;;;;;;1999.90;999.90;;;13.60;99.90;;;;;;5112164;27;20428;-67
2023/08/28 03:18:30;;;;;;;1999.90;999.90;;;13.60;99.90;;;;;;5115233;27;20837;-68
2023/08/28 03:20:56;;;;;;;1999.90;999.90;;;13.50;99.90;;;;;;5111405;27;20420;-68
2023/08/28 03:23:24;;;;;;;1999.90;999.90;;;13.40;99.90;;;;;;5124149;27;20806;-68
2023/08/28 03:25:51;;;;;;;1999.90;999.90;;;13.40;99.90;;;;;;5124766;27;20415;-68
2023/08/28 03:28:18;;;;;;;1999.90;999.90;;;13.50;99.90;;;;;;5116178;27;20933;-68
2023/08/28 03:30:44;;;;;;;1999.90;999.90;;;13.60;99.90;;;;;;5114380;27;20420;-68
2023/08/28 03:33:11;;;;;;;1999.90;999.90;;;13.80;99.90;;;;;;5112336;27;20431;-67
2023/08/28 03:35:38;;;;;;;1999.90;999.90;;;13.50;99.90;;;;;;5119610;27;20926;-68
2023/08/28 03:38:05;;;;;;;1999.90;999.90;;;13.50;99.90;;;;;;5126804;27;20430;-66
2023/08/28 03:40:34;;;;;;;1999.90;999.90;;;13.50;99.90;;;;;;5121196;27;20923;-68
2023/08/28 03:43:01;;;;;;;1999.90;999.90;;;13.50;99.90;;;;;;5108570;27;20432;-67
2023/08/28 03:45:28;;;;;;;1999.90;999.90;;;13.50;99.90;;;;;;5114054;27;20426;-67
2023/08/28 03:47:54;;;;;;;1999.90;999.90;;;13.50;99.90;;;;;;5115442;27;20426;-68
2023/08/28 03:50:21;;;;;;;1999.90;999.90;;;13.50;99.90;;;;;;5126000;27;20429;-67
2023/08/28 03:52:48;;;;;;;1999.90;999.90;;;13.60;99.90;;;;;;5122553;27;20432;-66
2023/08/28 03:55:15;;;;;;;1999.90;999.90;;;13.60;99.90;;;;;;5120830;27;20917;-66
2023/08/28 03:57:43;;;;;;;1999.90;999.90;;;13.60;99.90;;;;;;5110681;27;20427;-68
2023/08/28 04:00:13;;;;;;;1999.90;999.90;;;13.50;99.90;;;;;;5114527;27;20901;-67
2023/08/28 04:02:39;;;;;;;1999.90;999.90;;;13.50;99.90;;;;;;5132231;27;20429;-69
2023/08/28 04:05:07;;;;;;;1999.90;999.90;;;13.50;99.90;;;;;;5146888;27;20422;-71
2023/08/28 04:07:34;;;;;;;1999.90;999.90;;;13.50;99.90;;;;;;5142797;27;20426;-69
2023/08/28 04:10:01;;;;;;;1999.90;999.90;;;13.60;99.90;;;;;;5115527;27;20423;-67
2023/08/28 04:12:28;;;;;;;1999.90;999.90;;;13.60;99.90;;;;;;5108678;27;20429;-69
2023/08/28 04:14:57;;;;;;;1999.90;999.90;;;13.60;99.90;;;;;;5113682;27;20423;-69
2023/08/28 04:17:24;;;;;;;1999.90;999.90;;;13.60;99.90;;;;;;5125479;27;20985;-66
2023/08/28 04:19:52;;;;;;;1999.90;999.90;;;13.60;99.90;;;;;;5120681;27;20420;-67
2023/08/28 04:22:18;;;;;;;1999.90;999.90;;;13.60;99.90;;;;;;5119414;28;20505;-67
2023/08/28 04:24:46;;;;;;;1999.90;999.90;;;13.60;99.90;;;;;;5113021;28;20435;-66
2023/08/28 04:27:13;;;;;;;1999.90;999.90;;;13.60;99.90;;;;;;5110305;28;20485;-67
2023/08/28 04:29:41;;;;;;;1999.90;999.90;;;13.50;99.90;;;;;;5116988;28;20428;-68
2023/08/28 04:32:09;;;;;;;1999.90;999.90;;;13.50;99.90;;;;;;5124160;28;20430;-68
2023/08/28 04:34:36;;;;;;;1999.90;999.90;;;13.50;99.90;;;;;;5114016;28;20431;-69
2023/08/28 04:37:03;;;;;;;1999.90;999.90;;;13.50;99.90;;;;;;5114072;28;20497;-68
2023/08/28 04:39:30;;;;;;;1999.90;999.90;;;13.50;99.90;;;;;;5113103;28;20910;-68
2023/08/28 04:41:56;;;;;;;1999.90;999.90;;;13.60;99.90;;;;;;5115283;27;20445;-68
2023/08/28 04:44:23;;;;;;;1999.90;999.90;;;13.60;99.90;;;;;;5125863;27;20430;-68
2023/08/28 04:46:50;;;;;;;1999.90;999.90;;;13.70;99.90;;;;;;5122938;27;20432;-66
2023/08/28 04:49:18;;;;;;;1999.90;999.90;;;13.80;99.90;;;;;;5120623;27;20435;-67
2023/08/28 04:51:45;;;;;;;1999.90;999.90;;;13.80;99.90;;;;;;5116550;27;20431;-69
2023/08/28 04:54:11;;;;;;;1999.90;999.90;;;14.20;99.90;;;;;;5114158;27;20430;-68
2023/08/28 04:56:38;;;;;;;1999.90;999.90;;;13.90;99.90;;;;;;5127765;27;20939;-67
2023/08/28 04:59:05;;;;;;;1999.90;999.90;;;13.90;99.90;;;;;;5119935;27;20432;-68
2023/08/28 05:01:32;;;;;;;1999.90;999.90;;;14.00;99.90;;;;;;5118590;27;20433;-67
2023/08/28 05:03:59;;;;;;;1999.90;999.90;;;14.10;99.90;;;;;;5118439;27;20439;-66
2023/08/28 05:06:27;;;;;;;1999.90;999.90;;;14.10;99.90;;;;;;5122250;27;20417;-66
2023/08/28 05:08:54;;;;;;;1999.90;999.90;;;14.10;99.90;;;;;;5111519;28;20435;-67
2023/08/28 05:11:21;;;;;;;1999.90;999.90;;;14.20;99.90;;;;;;5114851;27;20426;-67
2023/08/28 05:13:47;;;;;;;1999.90;999.90;;;14.30;99.90;;;;;;5115679;27;20427;-67
2023/08/28 05:16:14;;;;;;;1999.90;999.90;;;14.40;99.90;;;;;;5121390;27;20432;-67
2023/08/28 05:18:41;;;;;;;1999.90;999.90;;;14.50;99.90;;;;;;5114915;27;20834;-68
2023/08/28 05:21:08;;;;;;;1999.90;999.90;;;14.70;99.90;;;;;;5113765;27;20447;-68
2023/08/28 05:23:36;;;;;;;1999.90;999.90;;;14.80;99.90;;;;;;5119641;27;20426;-68
2023/08/28 05:26:02;;;;;;;1999.90;999.90;;;14.80;99.90;;;;;;5127275;27;20435;-68
2023/08/28 05:28:31;;;;;;;1999.90;999.90;;;15.00;99.90;;;;;;5118956;27;20776;-68
2023/08/28 05:30:58;;;;;;;1999.90;999.90;;;15.40;99.90;;;;;;5115474;27;20424;-68
2023/08/28 05:33:24;;;;;;;1999.90;999.90;;;15.30;99.90;;;;;;5112678;27;20933;-68
2023/08/28 05:35:51;;;;;;;1999.90;999.90;;;15.20;99.90;;;;;;5106570;27;20424;-68
2023/08/28 05:38:18;;;;;;;1999.90;999.90;;;15.20;99.90;;;;;;5125546;27;20922;-67
2023/08/28 05:40:46;;;;;;;1999.90;999.90;;;15.40;99.90;;;;;;5120658;27;20435;-67
2023/08/28 05:43:13;;;;;;;1999.90;999.90;;;15.70;99.90;;;;;;5115545;27;20449;-69
2023/08/28 05:45:40;;;;;;;1999.90;999.90;;;15.40;99.90;;;;;;5120098;27;20504;-68
2023/08/28 05:48:08;;;;;;;1999.90;999.90;;;15.40;99.90;;;;;;5112838;27;20454;-68
2023/08/28 05:50:36;;;;;;;1999.90;999.90;;;15.50;99.90;;;;;;5113390;28;20416;-69
2023/08/28 05:53:03;;;;;;;1999.90;999.90;;;15.50;99.90;;;;;;5112510;28;20408;-67
2023/08/28 05:55:30;;;;;;;1999.90;999.90;;;15.50;99.90;;;;;;5112543;28;20517;-68
2023/08/28 05:57:58;;;;;;;1999.90;999.90;;;15.60;99.90;;;;;;5112480;28;20435;-68
2023/08/28 06:00:26;;;;;;;1999.90;999.90;;;15.60;99.90;;;;;;5105079;28;20402;-68
2023/08/28 06:02:52;;;;;;;1999.90;999.90;;;15.70;99.90;;;;;;5092046;28;20841;-69
2023/08/28 06:05:19;;;;;;;1999.90;999.90;;;15.90;99.90;;;;;;5117424;27;20919;-67
2023/08/28 06:07:46;;;;;;;1999.90;999.90;;;15.80;99.90;;;;;;5117746;27;20800;-67
2023/08/28 06:10:17;;;;;;;1999.90;999.90;;;15.80;99.90;;;;;;5111615;27;20478;-69
2023/08/28 06:12:44;;;;;;;1999.90;999.90;;;15.80;99.90;;;;;;5112701;27;20440;-69
2023/08/28 06:17:40;;;;;;;1999.90;999.90;;;15.90;99.90;;;;;;5039399;28;20417;-65
2023/08/28 06:20:09;;;;;;;1999.90;999.90;;;15.80;99.90;;;;;;5043873;28;21418;-65
2023/08/28 06:22:36;;;;;;;1999.90;999.90;;;16.00;99.90;;;;;;5050269;28;20465;-65
2023/08/28 06:25:04;;;;;;;1999.90;999.90;;;16.00;99.90;;;;;;5049977;28;20641;-65
2023/08/28 06:27:31;;;;;;;1999.90;999.90;;;16.20;99.90;;;;;;5049180;28;20424;-65
2023/08/28 06:29:57;;;;;;;1999.90;999.90;;;16.40;99.90;;;;;;5050107;28;20460;-65
2023/08/28 06:32:24;;;;;;;1999.90;999.90;;;16.60;99.90;;;;;;5048594;28;20437;-65
2023/08/28 06:34:52;;;;;;;1999.90;999.90;;;16.70;99.90;;;;;;5049732;28;20445;-66
2023/08/28 06:37:19;;;;;;;1999.90;999.90;;;16.80;99.90;;;;;;5049683;28;20440;-65
2023/08/28 06:39:46;;;;;;;1999.90;999.90;;;17.20;99.90;;;;;;5049821;28;20433;-65
2023/08/28 06:42:12;;;;;;;1999.90;999.90;;;17.10;99.90;;;;;;5049691;28;20425;-65
2023/08/28 06:44:39;;;;;;;1999.90;999.90;;;17.30;99.90;;;;;;5048493;28;20808;-65
2023/08/28 06:47:06;;;;;;;1999.90;999.90;;;17.30;99.90;;;;;;5048878;28;20444;-65
2023/08/28 06:49:33;;;;;;;1999.90;999.90;;;17.50;99.90;;;;;;5049715;28;20425;-65
2023/08/28 06:52:03;;;;;;;1999.90;999.90;;;17.90;99.90;;;;;;5047968;28;20799;-66
2023/08/28 06:54:32;;;;;;;1999.90;999.90;;;17.90;99.90;;;;;;5045436;28;20521;-66
2023/08/28 06:56:59;;;;;;;1999.90;999.90;;;18.10;99.90;;;;;;5035788;28;20938;-65
2023/08/28 06:59:25;;;;;;;1999.90;999.90;;;18.20;99.90;;;;;;5047985;28;20551;-66
2023/08/28 07:01:52;;;;;;;1999.90;999.90;;;18.10;99.90;;;;;;5040888;28;20433;-65
2023/08/28 07:04:19;;;;;;;1999.90;999.90;;;18.40;99.90;;;;;;5040274;28;20429;-65
2023/08/28 07:06:45;;;;;;;1999.90;999.90;;;18.50;99.90;;;;;;5046224;28;20429;-65
2023/08/28 07:09:13;;;;;;;1999.90;999.90;;;18.70;99.90;;;;;;5049085;28;20854;-65
2023/08/28 07:11:41;;;;;;;1999.90;999.90;;;18.40;99.90;;;;;;5048396;28;20448;-66
2023/08/28 07:14:10;;;;;;;1999.90;999.90;;;18.20;99.90;;;;;;5041316;28;21227;-65
2023/08/28 07:16:36;;;;;;;1999.90;999.90;;;18.20;99.90;;;;;;5047577;28;20433;-65
2023/08/28 07:19:03;;;;;;;1999.90;999.90;;;18.20;99.90;;;;;;5046442;28;20780;-65
2023/08/28 07:21:30;;;;;;;1999.90;999.90;;;18.30;99.90;;;;;;5045905;28;20425;-65
2023/08/28 07:23:56;;;;;;;1999.90;999.90;;;18.20;99.90;;;;;;5042766;28;20436;-65
2023/08/28 07:26:25;;;;;;;1999.90;999.90;;;18.20;99.90;;;;;;5047259;28;20438;-65
2023/08/28 07:28:51;;;;;;;1999.90;999.90;;;18.10;99.90;;;;;;5047025;28;20429;-65
2023/08/28 07:31:18;;;;;;;1999.90;999.90;;;18.20;99.90;;;;;;5048079;28;20899;-65
2023/08/28 07:33:45;;;;;;;1999.90;999.90;;;18.40;99.90;;;;;;5046478;28;20464;-65
2023/08/28 07:36:11;;;;;;;1999.90;999.90;;;18.40;99.90;;;;;;5041030;28;20433;-65
2023/08/28 07:38:38;;;;;;;1999.90;999.90;;;18.70;99.90;;;;;;5039699;28;20420;-65
2023/08/28 07:41:05;;;;;;;1999.90;999.90;;;18.80;99.90;;;;;;5043947;28;20639;-65
2023/08/28 07:43:33;;;;;;;1999.90;999.90;;;18.80;99.90;;;;;;5047132;28;20437;-65
2023/08/28 07:45:59;;;;;;;1999.90;999.90;;;18.80;99.90;;;;;;5048242;28;20444;-65
2023/08/28 07:48:26;;;;;;;1999.90;999.90;;;18.90;99.90;;;;;;5046805;28;20440;-64
2023/08/28 07:50:53;;;;;;;1999.90;999.90;;;18.80;99.90;;;;;;5036378;28;20451;-64
2023/08/28 07:53:20;;;;;;;1999.90;999.90;;;18.70;99.90;;;;;;5048003;28;20444;-67
2023/08/28 07:55:47;;;;;;;1999.90;999.90;;;18.60;99.90;;;;;;5045065;28;20436;-67
2023/08/28 07:58:13;;;;;;;1999.90;999.90;;;18.50;99.90;;;;;;5045093;28;20437;-65
2023/08/28 08:00:42;;;;;;;1999.90;999.90;;;18.50;99.90;;;;;;5043425;28;20436;-64
2023/08/28 08:03:09;;;;;;;1999.90;999.90;;;18.60;99.90;;;;;;5047904;28;20503;-64
2023/08/28 08:05:36;;;;;;;1999.90;999.90;;;18.60;99.90;;;;;;5046702;28;20440;-64
2023/08/28 08:08:03;;;;;;;1999.90;999.90;;;18.60;99.90;;;;;;5048194;28;20456;-64
2023/08/28 08:10:31;;;;;;;1999.90;999.90;;;18.60;99.90;;;;;;5044029;28;20854;-64
2023/08/28 08:12:58;;;;;;;1999.90;999.90;;;18.80;99.90;;;;;;5047015;28;20623;-64
2023/08/28 08:15:25;;;;;;;1999.90;999.90;;;19.00;99.90;;;;;;5043680;28;20948;-64
2023/08/28 08:17:53;;;;;;;1999.90;999.90;;;19.00;99.90;;;;;;5029634;28;20418;-64
2023/08/28 08:20:20;;;;;;;1999.90;999.90;;;19.10;99.90;;;;;;5028794;28;20415;-64
2023/08/28 08:22:47;;;;;;;1999.90;999.90;;;19.00;99.90;;;;;;5038585;28;20433;-65
2023/08/28 08:25:14;;;;;;;1999.90;999.90;;;19.20;99.90;;;;;;5046173;28;20461;-65
2023/08/28 08:27:44;;;;;;;1999.90;999.90;;;19.30;99.90;;;;;;5048938;28;20417;-64
2023/08/28 08:30:13;;;;;;;1999.90;999.90;;;19.40;99.90;;;;;;5048735;28;20413;-65
2023/08/28 08:32:40;;;;;;;1999.90;999.90;;;19.30;99.90;;;;;;5049177;28;20429;-65
2023/08/28 08:35:09;;;;;;;1999.90;999.90;;;19.30;99.90;;;;;;5048848;28;20409;-64
2023/08/28 08:37:36;;;;;;;1999.90;999.90;;;19.10;99.90;;;;;;5049095;28;20443;-65
2023/08/28 08:40:03;;;;;;;1999.90;999.90;;;19.20;99.90;;;;;;5046767;28;20462;-64
2023/08/28 08:42:30;;;;;;;1999.90;999.90;;;19.20;99.90;;;;;;5047090;28;20468;-64
2023/08/28 08:44:57;;;;;;;1999.90;999.90;;;19.20;99.90;;;;;;5047920;28;20443;-65
2023/08/28 08:47:24;;;;;;;1999.90;999.90;;;19.10;99.90;;;;;;5046931;28;20930;-64
2023/08/28 08:49:57;;;;;;;1999.90;999.90;;;19.00;99.90;;;;;;5047423;28;21048;-65
2023/08/28 08:52:26;;;;;;;1999.90;999.90;;;19.00;99.90;;;;;;5044755;28;20939;-64
2023/08/28 08:54:57;;;;;;;1999.90;999.90;;;18.80;99.90;;;;;;5044400;28;20444;-64
2023/08/28 08:57:29;;;;;;;1999.90;999.90;;;19.00;99.90;;;;;;5041547;28;20430;-64
2023/08/28 08:59:56;;;;;;;1999.90;999.90;;;19.00;99.90;;;;;;5038964;28;20434;-65
2023/08/28 09:02:22;;;;;;;1999.90;999.90;;;18.90;99.90;;;;;;5037450;28;20442;-65
2023/08/28 09:04:49;;;;;;;1999.90;999.90;;;18.90;99.90;;;;;;5039489;28;20421;-65
2023/08/28 09:07:18;;;;;;;1999.90;999.90;;;19.00;99.90;;;;;;5046512;28;20439;-65
2023/08/28 09:09:46;;;;;;;1999.90;999.90;;;19.20;99.90;;;;;;5045492;28;20437;-65
2023/08/28 09:12:16;;;;;;;1999.90;999.90;;;19.50;99.90;;;;;;5047524;28;20486;-64
2023/08/28 09:14:42;;;;;;;1999.90;999.90;;;19.80;99.90;;;;;;5046576;28;20464;-65
2023/08/28 09:17:09;;;;;;;1999.90;999.90;;;19.90;99.90;;;;;;5046677;28;20435;-65
2023/08/28 09:19:36;;;;;;;1999.90;999.90;;;19.80;99.90;;;;;;5045515;28;20444;-64
2023/08/28 09:22:04;;;;;;;1999.90;999.90;;;19.50;99.90;;;;;;5047553;28;20609;-65
2023/08/28 09:24:31;;;;;;;1999.90;999.90;;;19.50;99.90;;;;;;5047033;28;20517;-64
2023/08/28 09:27:02;;;;;;;1999.90;999.90;;;19.30;99.90;;;;;;5046143;28;20429;-65
2023/08/28 09:29:29;;;;;;;1999.90;999.90;;;19.10;99.90;;;;;;5051043;28;20506;-66
2023/08/28 09:32:03;;;;;;;1999.90;999.90;;;18.90;99.90;;;;;;5048667;28;20437;-67
2023/08/28 09:34:39;;;;;;;1999.90;999.90;;;18.80;99.90;;;;;;5049074;28;20954;-65
2023/08/28 09:37:10;;;;;;;1999.90;999.90;;;19.00;99.90;;;;;;5046737;28;20512;-64
2023/08/28 09:39:39;;;;;;;1999.90;999.90;;;18.80;99.90;;;;;;5047055;28;20530;-64
2023/08/28 09:42:08;;;;;;;1999.90;999.90;;;18.90;99.90;;;;;;5048680;28;20438;-65
2023/08/28 09:44:37;;;;;;;1999.90;999.90;;;19.00;99.90;;;;;;5049284;28;20440;-65
2023/08/28 09:47:05;;;;;;;1999.90;999.90;;;19.10;99.90;;;;;;5050011;28;20429;-64
2023/08/28 09:49:31;;;;;;;1999.90;999.90;;;19.30;99.90;;;;;;5050126;28;20437;-67
2023/08/28 09:52:00;;;;;;;1999.90;999.90;;;19.30;99.90;;;;;;5049357;28;20940;-67
2023/08/28 09:54:26;;;;;;;1999.90;999.90;;;19.30;99.90;;;;;;5047447;28;21217;-68
2023/08/28 09:56:53;;;;;;;1999.90;999.90;;;19.30;99.90;;;;;;5048441;28;20424;-66
2023/08/28 09:59:21;;;;;;;1999.90;999.90;;;19.60;99.90;;;;;;5044152;28;20531;-65
2023/08/28 10:01:48;;;;;;;1999.90;999.90;;;19.60;99.90;;;;;;5051128;28;20468;-65
2023/08/28 10:04:19;;;;;;;1999.90;999.90;;;19.40;99.90;;;;;;5049498;28;20437;-66
2023/08/28 10:06:49;;;;;;;1999.90;999.90;;;19.40;99.90;;;;;;5051645;28;20415;-66
2023/08/28 10:09:18;;;;;;;1999.90;999.90;;;19.30;99.90;;;;;;5033289;28;20907;-66
2023/08/28 10:11:46;;;;;;;1999.90;999.90;;;19.20;99.90;;;;;;5042938;28;20940;-65
2023/08/28 10:14:14;;;;;;;1999.90;999.90;;;19.30;99.90;;;;;;5049128;28;20456;-66
2023/08/28 10:16:44;;;;;;;1999.90;999.90;;;19.30;99.90;;;;;;5045505;28;20960;-66
2023/08/28 10:19:27;;;;;;;1999.90;999.90;;;19.60;99.90;;;;;;5050453;28;20442;-66
2023/08/28 10:21:54;;;;;;;1999.90;999.90;;;20.00;99.90;;;;;;5048793;28;20406;-66
2023/08/28 10:24:21;;;;;;;1999.90;999.90;;;20.20;99.90;;;;;;5052105;28;20409;-66
2023/08/28 10:26:48;;;;;;;1999.90;999.90;;;20.30;99.90;;;;;;5051951;28;20412;-66
2023/08/28 10:29:18;;;;;;;1999.90;999.90;;;20.50;99.90;;;;;;5049672;28;20444;-66
2023/08/28 10:31:47;;;;;;;1999.90;999.90;;;20.70;99.90;;;;;;5048969;28;20452;-66
2023/08/28 10:34:16;;;;;;;1999.90;999.90;;;20.70;99.90;;;;;;5042289;28;20427;-67
2023/08/28 10:36:46;;;;;;;1999.90;999.90;;;20.60;99.90;;;;;;5036934;28;20422;-66
2023/08/28 10:39:13;;;;;;;1999.90;999.90;;;20.70;99.90;;;;;;5032356;28;20410;-66
2023/08/28 10:41:41;;;;;;;1999.90;999.90;;;21.00;99.90;;;;;;5049685;28;20440;-66
2023/08/28 10:44:09;;;;;;;1999.90;999.90;;;20.90;99.90;;;;;;5048724;28;20440;-66
2023/08/28 10:46:36;;;;;;;1999.90;999.90;;;21.00;99.90;;;;;;5049482;28;20429;-66
2023/08/28 10:49:06;;;;;;;1999.90;999.90;;;21.00;99.90;;;;;;5048559;28;20942;-66
2023/08/28 10:51:35;;;;;;;1999.90;999.90;;;20.90;99.90;;;;;;5049609;28;20433;-66
2023/08/28 10:54:04;;;;;;;1999.90;999.90;;;21.00;99.90;;;;;;5048358;28;20440;-66
2023/08/28 10:56:33;;;;;;;1999.90;999.90;;;21.10;99.90;;;;;;5040278;28;20436;-66
2023/08/28 10:59:23;;;;;;;1999.90;999.90;;;21.20;99.90;;;;;;5051130;28;20423;-67
2023/08/28 11:01:52;;;;;;;1999.90;999.90;;;21.00;99.90;;;;;;5051549;28;20409;-66
2023/08/28 11:04:21;;;;;;;1999.90;999.90;;;20.90;99.90;;;;;;5049399;28;20468;-66
2023/08/28 11:06:48;;;;;;;1999.90;999.90;;;20.90;99.90;;;;;;5051119;28;20416;-66
2023/08/28 11:09:41;;;;;;;1999.90;999.90;;;21.00;99.90;;;;;;5051281;28;20416;-66
2023/08/28 11:12:28;;;;;;;1999.90;999.90;;;21.40;99.90;;;;;;5015171;28;20941;-66
2023/08/28 11:15:03;;;;;;;1999.90;999.90;;;21.30;99.90;;;;;;5051321;28;20428;-65
2023/08/28 11:17:34;;;;;;;1999.90;999.90;;;20.90;99.90;;;;;;5050003;28;20414;-66
2023/08/28 11:20:05;;;;;;;1999.90;999.90;;;20.60;99.90;;;;;;5050112;28;20997;-65
2023/08/28 11:22:32;;;;;;;1999.90;999.90;;;20.50;99.90;;;;;;5047603;28;21420;-66
2023/08/28 11:24:59;;;;;;;1999.90;999.90;;;20.60;99.90;;;;;;5048096;28;20433;-66
2023/08/28 11:27:33;;;;;;;1999.90;999.90;;;20.90;99.90;;;;;;5045719;28;20783;-66
2023/08/28 11:30:05;;;;;;;1999.90;999.90;;;20.80;99.90;;;;;;5047932;28;20442;-66
2023/08/28 11:32:33;;;;;;;1999.90;999.90;;;20.90;99.90;;;;;;5048236;28;20436;-65
2023/08/28 11:35:04;;;;;;;1999.90;999.90;;;21.20;99.90;;;;;;5048807;28;20839;-66
2023/08/28 11:37:32;;;;;;;1999.90;999.90;;;21.40;99.90;;;;;;5050766;28;20413;-64
2023/08/28 11:40:00;;;;;;;1999.90;999.90;;;21.70;99.90;;;;;;5050667;28;20405;-64
2023/08/28 11:42:28;;;;;;;1999.90;999.90;;;21.80;99.90;;;;;;5050549;28;20405;-66
2023/08/28 11:44:55;;;;;;;1999.90;999.90;;;21.60;99.90;;;;;;5050577;28;20420;-67
2023/08/28 11:47:25;;;;;;;1999.90;999.90;;;21.40;99.90;;;;;;5050760;28;20421;-66
2023/08/28 11:49:52;;;;;;;1999.90;999.90;;;21.20;99.90;;;;;;5046880;28;20582;-66
2023/08/28 11:52:20;;;;;;;1999.90;999.90;;;21.10;99.90;;;;;;5048608;28;20510;-66
2023/08/28 11:54:47;;;;;;;1999.90;999.90;;;21.40;99.90;;;;;;5049516;28;20448;-66
2023/08/28 11:57:16;;;;;;;1999.90;999.90;;;21.30;99.90;;;;;;5050223;28;20405;-67
2023/08/28 11:59:44;;;;;;;1999.90;999.90;;;21.40;99.90;;;;;;5050676;28;20413;-66
2023/08/28 12:02:12;;;;;;;1999.90;999.90;;;21.30;99.90;;;;;;5050471;28;20413;-64
2023/08/28 12:04:40;;;;;;;1999.90;999.90;;;21.50;99.90;;;;;;5050239;28;20405;-64